createdAt,value
2023-02-28T00:00:41.414Z,2.10
2023-02-28T00:03:07.902Z,1.90
2023-02-28T00:05:34.389Z,1.02
2023-02-28T00:08:00.950Z,1.88
2023-02-28T00:10:33.248Z,1.85
2023-02-28T00:13:07.326Z,2.17
2023-02-28T00:15:35.082Z,0.88
2023-02-28T00:18:06.400Z,6.75
2023-02-28T00:20:32.921Z,2.83
2023-02-28T00:22:59.396Z,1.42
2023-02-28T00:25:26.444Z,1.55
2023-02-28T00:27:53.421Z,2.03
2023-02-28T00:30:22.414Z,1.45
2023-02-28T00:32:49.495Z,2.20
2023-02-28T00:35:16.526Z,2.15
2023-02-28T00:37:43.483Z,3.22
2023-02-28T00:40:11.027Z,1.25
2023-02-28T00:42:37.573Z,6.68
2023-02-28T00:45:05.752Z,1.73
2023-02-28T00:47:32.848Z,1.88
2023-02-28T00:49:59.407Z,4.20
2023-02-28T00:52:26.536Z,3.53
2023-02-28T00:54:52.968Z,7.40
2023-02-28T00:57:27.383Z,1.42
2023-02-28T00:59:55.979Z,2.03
2023-02-28T01:02:23.914Z,2.15
2023-02-28T01:04:50.582Z,2.15
2023-02-28T01:07:17.225Z,2.85
2023-02-28T01:09:43.577Z,1.83
2023-02-28T01:12:10.127Z,3.38
2023-02-28T01:14:37.084Z,2.45
2023-02-28T01:17:03.611Z,4.90
2023-02-28T01:19:32.764Z,1.95
2023-02-28T01:22:04.446Z,1.40
2023-02-28T01:24:31.864Z,4.47
2023-02-28T01:26:59.597Z,1.17
2023-02-28T01:29:28.089Z,1.10
2023-02-28T01:31:56.683Z,3.97
2023-02-28T01:34:23.230Z,1.73
2023-02-28T01:36:49.695Z,3.63
2023-02-28T01:39:16.164Z,7.63
2023-02-28T01:41:47.516Z,2.45
2023-02-28T01:44:51.379Z,4.90
2023-02-28T01:47:17.881Z,2.58
2023-02-28T01:49:44.422Z,1.70
2023-02-28T01:52:15.904Z,2.65
2023-02-28T01:54:42.357Z,6.93
2023-02-28T01:57:13.825Z,10.27
2023-02-28T01:59:52.710Z,2.95
2023-02-28T02:02:21.818Z,2.65
2023-02-28T02:05:02.664Z,1.83
2023-02-28T02:07:34.249Z,2.67
2023-02-28T02:10:04.235Z,4.63
2023-02-28T02:12:41.085Z,4.35
2023-02-28T02:15:15.339Z,1.40
2023-02-28T02:17:49.341Z,1.95
2023-02-28T02:20:37.591Z,2.03
2023-02-28T02:23:41.770Z,2.30
2023-02-28T02:26:14.056Z,2.35
2023-02-28T02:28:55.859Z,2.60
2023-02-28T02:31:53.093Z,2.70
2023-02-28T02:34:38.072Z,5.45
2023-02-28T02:37:17.453Z,5.10
2023-02-28T02:39:49.879Z,2.97
2023-02-28T02:44:56.837Z,2.15
2023-02-28T02:47:27.245Z,4.63
2023-02-28T02:49:56.532Z,2.63
2023-02-28T02:52:35.416Z,2.33
2023-02-28T02:55:04.560Z,4.40
2023-02-28T02:57:47.522Z,5.18
2023-02-28T03:00:16.609Z,5.25
2023-02-28T03:02:45.566Z,2.20
2023-02-28T03:05:40.660Z,6.90
2023-02-28T03:08:07.393Z,4.55
2023-02-28T03:10:43.446Z,6.55
2023-02-28T03:13:15.249Z,3.00
2023-02-28T03:15:56.273Z,4.95
2023-02-28T03:18:37.335Z,6.18
2023-02-28T03:21:24.889Z,8.23
2023-02-28T03:24:09.561Z,7.15
2023-02-28T03:26:43.288Z,4.68
2023-02-28T03:29:33.957Z,9.93
2023-02-28T03:32:15.414Z,6.88
2023-02-28T03:35:05.754Z,8.38
2023-02-28T03:37:37.327Z,6.38
2023-02-28T03:40:13.755Z,5.00
2023-02-28T03:42:44.529Z,8.90
2023-02-28T03:45:32.289Z,12.00
2023-02-28T03:48:08.545Z,7.43
2023-02-28T03:50:46.226Z,4.95
2023-02-28T03:53:25.532Z,6.95
2023-02-28T03:56:20.181Z,10.63
2023-02-28T03:59:01.309Z,9.57
2023-02-28T04:01:28.266Z,6.78
2023-02-28T04:03:55.042Z,8.85
2023-02-28T04:06:26.504Z,8.57
2023-02-28T04:08:54.120Z,5.30
2023-02-28T04:11:32.981Z,5.43
2023-02-28T04:14:05.636Z,4.75
2023-02-28T04:16:35.616Z,8.73
2023-02-28T04:19:05.828Z,4.55
2023-02-28T04:21:46.414Z,4.90
2023-02-28T04:24:18.138Z,3.85
2023-02-28T04:26:47.700Z,4.35
2023-02-28T04:29:23.617Z,5.72
2023-02-28T04:31:50.355Z,12.27
2023-02-28T04:34:19.981Z,5.15
2023-02-28T04:37:06.111Z,6.28
2023-02-28T04:39:38.088Z,7.57
2023-02-28T04:42:04.965Z,6.55
2023-02-28T04:44:31.552Z,4.18
2023-02-28T04:46:57.940Z,4.18
2023-02-28T04:49:24.760Z,4.35
2023-02-28T04:51:51.216Z,4.93
2023-02-28T04:54:18.972Z,3.53
2023-02-28T04:56:50.921Z,5.45
2023-02-28T04:59:17.630Z,4.55
2023-02-28T05:01:50.066Z,2.60
2023-02-28T05:06:43.245Z,5.07
2023-02-28T05:09:12.378Z,4.18
2023-02-28T05:11:40.064Z,4.28
2023-02-28T05:14:11.220Z,6.00
2023-02-28T05:16:40.585Z,5.53
2023-02-28T05:19:07.113Z,3.17
2023-02-28T05:21:53.833Z,4.97
2023-02-28T05:24:23.769Z,6.32
2023-02-28T05:26:53.070Z,2.72
2023-02-28T05:29:20.169Z,3.92
2023-02-28T05:31:49.381Z,2.90
2023-02-28T05:34:18.450Z,3.55
2023-02-28T05:36:47.686Z,4.82
2023-02-28T05:39:14.388Z,5.25
2023-02-28T05:41:42.764Z,5.85
2023-02-28T05:44:09.805Z,7.60
2023-02-28T05:46:36.305Z,4.00
2023-02-28T05:49:04.756Z,6.20
2023-02-28T05:51:31.721Z,6.07
2023-02-28T05:54:02.442Z,3.45
2023-02-28T05:56:29.388Z,4.65
2023-02-28T05:58:55.867Z,3.00
2023-02-28T06:01:36.759Z,4.82
2023-02-28T06:04:07.211Z,3.22
2023-02-28T06:06:36.883Z,4.50
2023-02-28T06:09:05.710Z,6.15
2023-02-28T06:11:32.632Z,6.22
2023-02-28T06:14:01.430Z,4.65
2023-02-28T06:16:29.100Z,5.30
2023-02-28T06:18:57.968Z,4.30
2023-02-28T06:21:28.835Z,5.82
2023-02-28T06:23:58.952Z,6.38
2023-02-28T06:26:27.552Z,6.85
2023-02-28T06:28:54.424Z,12.35
2023-02-28T06:31:21.690Z,8.88
2023-02-28T06:33:51.084Z,6.45
2023-02-28T06:36:18.211Z,6.05
2023-02-28T06:38:45.426Z,4.03
2023-02-28T06:41:12.372Z,3.53
2023-02-28T06:43:42.590Z,5.57
2023-02-28T06:46:13.328Z,4.00
2023-02-28T06:48:39.951Z,3.67
2023-02-28T06:51:15.159Z,6.32
2023-02-28T06:53:41.605Z,11.68
2023-02-28T06:56:10.515Z,3.80
2023-02-28T06:58:40.119Z,4.05
2023-02-28T07:01:07.574Z,4.97
2023-02-28T07:03:35.814Z,5.22
2023-02-28T07:06:02.769Z,9.80
2023-02-28T07:08:32.546Z,9.07
2023-02-28T07:10:59.395Z,5.40
2023-02-28T07:13:26.072Z,8.90
2023-02-28T07:16:01.324Z,6.68
2023-02-28T07:18:27.880Z,9.57
2023-02-28T07:20:54.545Z,3.92
2023-02-28T07:23:21.543Z,14.55
2023-02-28T07:25:51.563Z,6.20
2023-02-28T07:28:20.518Z,7.50
2023-02-28T07:30:47.119Z,6.03
2023-02-28T07:33:13.852Z,5.75
2023-02-28T07:35:40.536Z,6.22
2023-02-28T07:38:09.609Z,6.05
2023-02-28T07:40:39.558Z,7.10
2023-02-28T07:43:06.001Z,6.30
2023-02-28T07:45:35.400Z,4.93
2023-02-28T07:48:02.840Z,5.13
2023-02-28T07:50:35.468Z,6.25
2023-02-28T07:53:02.242Z,9.60
2023-02-28T07:55:28.661Z,5.28
2023-02-28T07:57:58.291Z,6.40
2023-02-28T08:00:25.149Z,7.90
2023-02-28T08:02:52.268Z,6.22
2023-02-28T08:05:22.329Z,10.45
2023-02-28T08:07:50.438Z,8.10
2023-02-28T08:10:17.015Z,4.15
2023-02-28T08:12:43.470Z,5.22
2023-02-28T08:15:12.746Z,4.82
2023-02-28T08:17:39.325Z,16.67
2023-02-28T08:20:10.171Z,5.55
2023-02-28T08:22:36.762Z,6.80
2023-02-28T08:25:03.559Z,5.50
2023-02-28T08:27:29.962Z,9.70
2023-02-28T08:29:56.322Z,5.28
2023-02-28T08:32:29.889Z,6.07
2023-02-28T08:34:57.528Z,5.90
2023-02-28T08:37:26.774Z,5.07
2023-02-28T08:39:56.089Z,5.95
2023-02-28T08:42:22.888Z,6.75
2023-02-28T08:44:49.280Z,10.38
2023-02-28T08:47:17.987Z,7.53
2023-02-28T08:49:47.229Z,8.70
2023-02-28T08:52:13.672Z,4.18
2023-02-28T08:54:40.164Z,7.55
2023-02-28T08:57:11.168Z,6.60
2023-02-28T08:59:37.597Z,10.10
2023-02-28T09:02:04.065Z,5.53
2023-02-28T09:04:31.960Z,5.65
2023-02-28T09:06:58.492Z,9.25
2023-02-28T09:09:24.988Z,6.88
2023-02-28T09:11:56.675Z,9.82
2023-02-28T09:14:23.128Z,5.90
2023-02-28T09:16:52.452Z,6.70
2023-02-28T09:19:18.923Z,8.13
2023-02-28T09:21:45.297Z,5.00
2023-02-28T09:24:14.559Z,8.00
2023-02-28T09:26:47.179Z,9.82
2023-02-28T09:29:22.316Z,5.70
2023-02-28T09:31:49.101Z,6.75
2023-02-28T09:34:15.726Z,10.05
2023-02-28T09:36:46.448Z,6.35
2023-02-28T09:39:16.804Z,4.53
2023-02-28T09:41:52.135Z,6.35
2023-02-28T09:44:43.928Z,11.02
2023-02-28T09:47:17.829Z,5.05
2023-02-28T09:49:48.678Z,4.80
2023-02-28T09:52:21.836Z,7.65
2023-02-28T09:54:48.332Z,5.05
2023-02-28T09:57:26.576Z,6.25
2023-02-28T10:00:15.590Z,7.82
2023-02-28T10:03:01.134Z,5.40
2023-02-28T10:05:44.544Z,6.63
2023-02-28T10:09:04.756Z,8.57
2023-02-28T10:11:36.597Z,6.10
2023-02-28T10:14:16.550Z,9.90
2023-02-28T10:17:06.341Z,5.35
2023-02-28T10:19:45.348Z,5.82
2023-02-28T10:22:22.343Z,4.93
2023-02-28T10:24:54.176Z,6.30
2023-02-28T10:27:24.619Z,4.85
2023-02-28T10:29:54.397Z,9.57
2023-02-28T10:32:31.945Z,6.30
2023-02-28T10:35:02.156Z,6.55
2023-02-28T10:37:29.483Z,6.82
2023-02-28T10:40:03.226Z,7.82
2023-02-28T10:42:30.842Z,6.63
2023-02-28T10:45:11.875Z,8.05
2023-02-28T10:47:59.049Z,5.90
2023-02-28T10:50:54.592Z,5.85
2023-02-28T10:53:27.036Z,7.05
2023-02-28T10:56:10.535Z,13.20
2023-02-28T10:58:50.710Z,5.55
2023-02-28T11:01:21.138Z,6.20
2023-02-28T11:03:47.816Z,10.18
2023-02-28T11:06:21.972Z,5.90
2023-02-28T11:09:03.638Z,7.38
2023-02-28T11:11:41.812Z,4.07
2023-02-28T11:14:21.257Z,7.53
2023-02-28T11:16:49.415Z,6.80
2023-02-28T11:19:26.500Z,12.30
2023-02-28T11:22:01.630Z,7.45
2023-02-28T11:24:38.037Z,5.65
2023-02-28T11:27:04.947Z,9.60
2023-02-28T11:29:35.850Z,7.20
2023-02-28T11:32:12.597Z,5.32
2023-02-28T11:34:40.339Z,10.13
2023-02-28T11:37:16.297Z,5.68
2023-02-28T11:39:43.888Z,6.57
2023-02-28T11:42:29.836Z,7.60
2023-02-28T11:45:01.337Z,7.03
2023-02-28T11:47:33.977Z,7.73
2023-02-28T11:50:23.441Z,8.88
2023-02-28T11:52:55.087Z,8.65
2023-02-28T11:55:42.312Z,7.72
2023-02-28T11:58:14.422Z,6.53
2023-02-28T12:01:17.607Z,6.70
2023-02-28T12:03:59.068Z,8.45
2023-02-28T12:06:41.272Z,8.45
2023-02-28T12:09:34.384Z,6.25
2023-02-28T12:12:25.554Z,8.20
2023-02-28T12:14:54.795Z,5.70
2023-02-28T12:17:42.237Z,5.95
2023-02-28T12:20:27.437Z,8.68
2023-02-28T12:23:11.569Z,12.18
2023-02-28T12:25:56.744Z,5.45
2023-02-28T12:28:29.587Z,7.72
2023-02-28T12:31:23.052Z,5.18
2023-02-28T12:33:56.874Z,6.75
2023-02-28T12:36:24.809Z,6.00
2023-02-28T12:39:16.498Z,7.78
2023-02-28T12:42:06.476Z,13.38
2023-02-28T12:44:45.586Z,12.05
2023-02-28T12:47:16.885Z,7.97
2023-02-28T12:49:55.397Z,7.15
2023-02-28T12:52:38.824Z,6.75
2023-02-28T12:55:42.454Z,8.25
2023-02-28T12:58:34.356Z,10.80
2023-02-28T13:01:28.780Z,7.73
2023-02-28T13:04:22.059Z,9.88
2023-02-28T13:06:51.475Z,8.38
2023-02-28T13:09:19.226Z,10.48
2023-02-28T13:11:50.556Z,8.02
2023-02-28T13:14:35.201Z,6.90
2023-02-28T13:17:13.022Z,8.68
2023-02-28T13:19:54.931Z,9.30
2023-02-28T13:22:45.175Z,6.22
2023-02-28T13:25:23.803Z,9.45
2023-02-28T13:27:57.268Z,9.63
2023-02-28T13:30:51.620Z,8.65
2023-02-28T13:33:24.088Z,9.85
2023-02-28T13:38:36.699Z,7.60
2023-02-28T13:41:37.095Z,7.65
2023-02-28T13:44:03.538Z,7.97
2023-02-28T13:46:30.903Z,8.52
2023-02-28T13:48:57.656Z,7.82
2023-02-28T13:51:48.920Z,7.32
2023-02-28T13:54:36.746Z,7.63
2023-02-28T13:57:21.949Z,7.57
2023-02-28T14:00:06.746Z,6.50
2023-02-28T14:03:06.806Z,10.38
2023-02-28T14:05:35.375Z,7.05
2023-02-28T14:08:24.063Z,9.77
2023-02-28T14:11:05.635Z,8.60
2023-02-28T14:13:48.238Z,7.78
2023-02-28T14:16:21.150Z,7.90
2023-02-28T14:18:59.649Z,8.70
2023-02-28T14:21:33.207Z,10.85
2023-02-28T14:24:20.767Z,9.52
2023-02-28T14:26:59.379Z,8.68
2023-02-28T14:29:44.266Z,9.23
2023-02-28T14:32:22.917Z,8.85
2023-02-28T14:35:02.271Z,9.38
2023-02-28T14:37:38.413Z,8.02
2023-02-28T14:40:05.945Z,9.27
2023-02-28T14:42:44.887Z,8.18
2023-02-28T14:45:22.225Z,9.50
2023-02-28T14:47:50.974Z,8.88
2023-02-28T14:50:28.097Z,8.35
2023-02-28T14:52:58.588Z,7.80
2023-02-28T14:55:29.730Z,12.93
2023-02-28T14:58:00.470Z,8.45
2023-02-28T15:00:31.333Z,11.00
2023-02-28T15:03:00.070Z,13.65
2023-02-28T15:05:28.655Z,11.10
2023-02-28T15:08:11.315Z,6.97
2023-02-28T15:13:16.335Z,10.23
2023-02-28T15:16:01.879Z,12.13
2023-02-28T15:18:28.969Z,9.82
2023-02-28T15:20:58.051Z,6.68
2023-02-28T15:23:25.062Z,9.95
2023-02-28T15:25:53.527Z,10.57
2023-02-28T15:28:22.934Z,8.30
2023-02-28T15:30:57.880Z,11.15
2023-02-28T15:33:30.641Z,9.18
2023-02-28T15:36:22.069Z,10.35
2023-02-28T15:38:52.839Z,7.40
2023-02-28T15:41:29.020Z,8.68
2023-02-28T15:44:18.060Z,10.05
2023-02-28T15:46:55.874Z,8.30
2023-02-28T15:49:24.340Z,10.10
2023-02-28T15:51:58.964Z,12.68
2023-02-28T15:54:30.883Z,11.38
2023-02-28T15:57:01.688Z,8.38
2023-02-28T15:59:30.772Z,11.45
2023-02-28T16:02:32.372Z,8.10
2023-02-28T16:05:11.099Z,7.78
2023-02-28T16:07:42.054Z,7.20
2023-02-28T16:10:10.630Z,7.88
2023-02-28T16:12:41.213Z,9.60
2023-02-28T16:15:18.187Z,8.38
2023-02-28T16:17:45.872Z,9.52
2023-02-28T16:20:27.070Z,13.45
2023-02-28T16:22:53.995Z,12.25
2023-02-28T16:25:25.751Z,10.65
2023-02-28T16:27:58.521Z,8.80
2023-02-28T16:30:27.314Z,7.45
2023-02-28T16:32:56.183Z,10.65
2023-02-28T16:35:23.136Z,10.95
2023-02-28T16:37:52.333Z,10.38
2023-02-28T16:40:26.546Z,12.10
2023-02-28T16:43:00.654Z,13.80
2023-02-28T16:45:29.648Z,19.25
2023-02-28T16:47:56.552Z,15.10
2023-02-28T16:50:31.333Z,9.57
2023-02-28T16:52:57.893Z,10.23
2023-02-28T16:55:26.456Z,12.85
2023-02-28T16:58:01.404Z,9.05
2023-02-28T17:00:29.915Z,7.60
2023-02-28T17:02:57.023Z,9.25
2023-02-28T17:05:24.867Z,7.80
2023-02-28T17:07:51.337Z,10.80
2023-02-28T17:10:29.720Z,13.30
2023-02-28T17:13:06.000Z,13.18
2023-02-28T17:15:39.811Z,9.50
2023-02-28T17:18:12.320Z,9.40
2023-02-28T17:20:38.922Z,12.32
2023-02-28T17:23:05.493Z,11.52
2023-02-28T17:25:31.912Z,11.18
2023-02-28T17:28:00.913Z,12.98
2023-02-28T17:30:28.522Z,12.45
2023-02-28T17:32:56.466Z,9.95
2023-02-28T17:35:23.705Z,12.98
2023-02-28T17:37:50.977Z,9.55
2023-02-28T17:40:22.020Z,12.43
2023-02-28T17:42:48.685Z,11.80
2023-02-28T17:45:16.114Z,9.98
2023-02-28T17:47:46.577Z,10.05
2023-02-28T17:50:19.429Z,9.45
2023-02-28T17:52:45.811Z,8.18
2023-02-28T17:55:12.938Z,10.48
2023-02-28T17:57:39.990Z,14.55
2023-02-28T18:00:07.762Z,19.30
2023-02-28T18:02:34.371Z,13.02
2023-02-28T18:05:01.040Z,10.48
2023-02-28T18:07:30.014Z,15.43
2023-02-28T18:09:56.374Z,19.25
2023-02-28T18:12:22.769Z,11.57
2023-02-28T18:14:49.145Z,12.75
2023-02-28T18:17:15.517Z,13.10
2023-02-28T18:19:46.871Z,16.52
2023-02-28T18:22:15.821Z,13.23
2023-02-28T18:24:42.164Z,14.60
2023-02-28T18:27:08.923Z,16.45
2023-02-28T18:29:39.190Z,16.48
2023-02-28T18:32:07.093Z,14.77
2023-02-28T18:34:33.613Z,13.68
2023-02-28T18:37:05.038Z,12.73
2023-02-28T18:39:32.250Z,10.75
2023-02-28T18:41:58.962Z,14.65
2023-02-28T18:44:25.339Z,9.45
2023-02-28T18:46:54.223Z,11.57
2023-02-28T18:49:23.365Z,14.00
2023-02-28T18:51:49.735Z,15.35
2023-02-28T18:54:20.734Z,13.57
2023-02-28T18:56:47.305Z,18.30
2023-02-28T18:59:13.770Z,13.95
2023-02-28T19:01:42.892Z,16.70
2023-02-28T19:04:13.001Z,17.08
2023-02-28T19:06:39.645Z,15.18
2023-02-28T19:09:08.675Z,14.05
2023-02-28T19:11:36.664Z,11.45
2023-02-28T19:14:03.409Z,16.10
2023-02-28T19:16:32.827Z,17.42
2023-02-28T19:18:59.498Z,18.25
2023-02-28T19:21:26.107Z,15.55
2023-02-28T19:23:53.067Z,12.48
2023-02-28T19:26:24.355Z,16.02
2023-02-28T19:28:51.074Z,12.93
2023-02-28T19:31:23.163Z,14.15
2023-02-28T19:33:52.961Z,12.30
2023-02-28T19:36:20.428Z,16.27
2023-02-28T19:38:47.250Z,12.63
2023-02-28T19:41:15.702Z,12.52
2023-02-28T19:43:42.655Z,14.40
2023-02-28T19:46:10.183Z,13.55
2023-02-28T19:48:44.815Z,10.95
2023-02-28T19:53:48.899Z,14.23
2023-02-28T19:56:15.477Z,17.52
2023-02-28T19:58:41.852Z,12.95
2023-02-28T20:01:14.495Z,15.90
2023-02-28T20:03:41.714Z,10.80
2023-02-28T20:06:15.255Z,16.92
2023-02-28T20:08:42.495Z,18.70
2023-02-28T20:11:11.652Z,20.20
2023-02-28T20:13:40.873Z,13.95
2023-02-28T20:16:10.049Z,23.42
2023-02-28T20:18:38.182Z,14.23
2023-02-28T20:21:05.018Z,11.98
2023-02-28T20:23:31.442Z,16.02
2023-02-28T20:26:03.429Z,15.10
2023-02-28T20:28:30.105Z,12.35
2023-02-28T20:31:01.352Z,14.68
2023-02-28T20:33:30.289Z,12.30
2023-02-28T20:36:01.521Z,14.82
2023-02-28T20:38:28.198Z,16.90
2023-02-28T20:40:56.325Z,14.25
2023-02-28T20:43:23.704Z,12.73
2023-02-28T20:45:54.075Z,12.43
2023-02-28T20:48:20.777Z,11.43
2023-02-28T20:50:52.693Z,11.68
2023-02-28T20:53:19.886Z,13.18
2023-02-28T20:56:03.066Z,16.27
2023-02-28T20:58:35.533Z,15.88
2023-02-28T21:03:28.531Z,25.10
2023-02-28T21:06:01.323Z,15.52
2023-02-28T21:08:27.788Z,12.20
2023-02-28T21:10:54.905Z,12.07
2023-02-28T21:13:21.452Z,13.93
2023-02-28T21:15:47.899Z,12.30
2023-02-28T21:18:15.862Z,15.07
2023-02-28T21:20:44.823Z,13.93
2023-02-28T21:23:11.851Z,16.05
2023-02-28T21:25:40.926Z,15.00
2023-02-28T21:28:07.937Z,13.10
2023-02-28T21:30:39.629Z,19.52
2023-02-28T21:33:08.393Z,11.60
2023-02-28T21:35:35.053Z,12.05
2023-02-28T21:38:01.449Z,8.20
2023-02-28T21:40:27.954Z,14.68
2023-02-28T21:42:54.394Z,10.65
2023-02-28T21:45:20.912Z,20.10
2023-02-28T21:47:47.537Z,14.25
2023-02-28T21:50:14.078Z,12.20
2023-02-28T21:52:41.604Z,11.10
2023-02-28T21:55:10.510Z,11.23
2023-02-28T21:57:36.954Z,11.20
2023-02-28T22:00:04.847Z,13.60
2023-02-28T22:02:31.242Z,14.15
2023-02-28T22:05:03.351Z,36.65
2023-02-28T22:07:30.176Z,21.13
2023-02-28T22:09:56.617Z,23.23
2023-02-28T22:12:22.996Z,14.27
2023-02-28T22:14:49.691Z,14.13
2023-02-28T22:17:16.212Z,17.75
2023-02-28T22:19:42.884Z,15.02
2023-02-28T22:22:09.243Z,10.07
2023-02-28T22:24:35.972Z,11.35
2023-02-28T22:27:02.386Z,14.68
2023-02-28T22:29:31.116Z,9.70
2023-02-28T22:31:59.724Z,15.10
2023-02-28T22:34:26.187Z,14.52
2023-02-28T22:36:52.539Z,14.82
2023-02-28T22:39:21.319Z,10.23
2023-02-28T22:41:52.268Z,13.13
2023-02-28T22:44:18.713Z,9.10
2023-02-28T22:46:45.250Z,14.68
2023-02-28T22:49:11.583Z,9.60
2023-02-28T22:51:37.956Z,17.48
2023-02-28T22:54:04.680Z,15.07
2023-02-28T22:56:31.532Z,10.50
2023-02-28T22:59:00.004Z,10.05
2023-02-28T23:01:29.013Z,10.45
2023-02-28T23:03:55.449Z,9.60
2023-02-28T23:06:23.613Z,12.07
2023-02-28T23:08:51.624Z,13.38
2023-02-28T23:11:22.341Z,14.73
2023-02-28T23:13:58.419Z,14.05
2023-02-28T23:16:36.738Z,9.93
2023-02-28T23:19:07.468Z,14.68
2023-02-28T23:21:35.093Z,16.52
2023-02-28T23:24:03.126Z,11.63
2023-02-28T23:26:31.646Z,15.73
2023-02-28T23:29:01.311Z,13.57
2023-02-28T23:31:27.871Z,10.73
2023-02-28T23:33:56.335Z,15.57
2023-02-28T23:36:23.268Z,17.63
2023-02-28T23:38:54.248Z,12.40
2023-02-28T23:41:22.440Z,15.40
2023-02-28T23:43:50.890Z,12.95
2023-02-28T23:46:17.379Z,15.95
2023-02-28T23:48:47.394Z,14.13
2023-02-28T23:51:19.681Z,15.73
2023-02-28T23:53:48.521Z,14.60
2023-02-28T23:56:17.220Z,12.52
2023-02-28T23:58:45.723Z,18.02
